< < Back
Terminal Aerodrome Forecast


Current Version              Previous Versions:   1  2  3  4  5  6  7  8  9  

Terminal Aerodrome Forecast

192
FTUS42 KCHS 311700
TAFCHS
TAF
KCHS 311735Z 3118/0118 VRB06KT 6SM -TSRA SCT025CB BKN040 OVC080
      TEMPO 3118/3120 VRB20G25KT 3/4SM +TSRA SCT009 BKN015CB
     FM312100 10012G17KT P6SM VCTS SCT025CB SCT050 BKN080
     FM010200 VRB05KT P6SM VCSH SCT015 BKN035
     FM011500 12008KT P6SM VCTS SCT020CB BKN040=



Latest METAR

259
SAUS80 KWBC 311700 CCA
MTRCHS
METAR KCHS 311656Z 26005KT 5SM TSRA BR SCT025 BKN040CB OVC070 26/23
A3006 RMK AO2 TSB21RAB18 SLP178 OCNL LTGIC W-NW TS W-NW MOV N
P0015 T02560233 $


USA.gov is the U.S. government's official web portal to all federal, state and local government web resources and services.